createdAt,value
2023-05-17T00:01:56.774Z,71.20
2023-05-17T00:04:24.084Z,71.00
2023-05-17T00:06:51.388Z,70.90
2023-05-17T00:09:18.663Z,70.90
2023-05-17T00:11:45.853Z,70.80
2023-05-17T00:14:13.106Z,70.60
2023-05-17T00:16:40.358Z,70.40
2023-05-17T00:19:09.746Z,70.10
2023-05-17T00:21:37.423Z,70.00
2023-05-17T00:24:04.877Z,69.80
2023-05-17T00:26:33.854Z,69.70
2023-05-17T00:29:01.404Z,69.80
2023-05-17T00:31:28.612Z,70.00
2023-05-17T00:33:55.825Z,70.10
2023-05-17T00:36:23.293Z,70.00
2023-05-17T00:38:50.669Z,70.00
2023-05-17T00:41:18.315Z,70.00
2023-05-17T00:43:46.438Z,70.10
2023-05-17T00:46:13.655Z,69.90
2023-05-17T00:48:41.316Z,69.70
2023-05-17T00:51:09.328Z,69.70
2023-05-17T00:53:37.408Z,69.80
2023-05-17T00:56:05.261Z,70.00
2023-05-17T00:58:34.045Z,70.10
2023-05-17T01:01:01.849Z,70.40
2023-05-17T01:03:29.247Z,70.30
2023-05-17T01:05:57.035Z,70.10
2023-05-17T01:08:24.319Z,69.70
2023-05-17T01:11:00.736Z,69.50
2023-05-17T01:14:13.192Z,69.40
2023-05-17T01:16:48.219Z,69.50
2023-05-17T01:19:36.824Z,69.50
2023-05-17T01:22:33.141Z,69.20
2023-05-17T01:25:29.538Z,69.20
2023-05-17T01:28:01.255Z,69.30
2023-05-17T01:30:30.300Z,69.10
2023-05-17T01:33:01.545Z,68.90
2023-05-17T01:35:29.535Z,69.00
2023-05-17T01:37:56.947Z,69.50
2023-05-17T01:40:24.506Z,70.00
2023-05-17T01:43:03.027Z,69.30
2023-05-17T01:45:47.240Z,68.90
2023-05-17T01:48:53.079Z,68.60
2023-05-17T01:51:28.852Z,68.70
2023-05-17T01:54:03.940Z,68.50
2023-05-17T01:56:36.424Z,68.40
2023-05-17T01:59:04.959Z,68.50
2023-05-17T02:01:32.994Z,68.80
2023-05-17T02:04:00.228Z,68.50
2023-05-17T02:06:27.518Z,68.50
2023-05-17T02:08:54.818Z,68.70
2023-05-17T02:11:22.001Z,68.50
2023-05-17T02:13:49.163Z,68.50
2023-05-17T02:16:16.273Z,68.70
2023-05-17T02:18:43.609Z,68.70
2023-05-17T02:21:10.871Z,68.70
2023-05-17T02:23:38.196Z,68.70
2023-05-17T02:26:05.614Z,68.40
2023-05-17T02:28:34.399Z,68.30
2023-05-17T02:31:03.682Z,68.50
2023-05-17T02:33:31.304Z,68.80
2023-05-17T02:35:58.553Z,68.80
2023-05-17T02:38:25.831Z,68.80
2023-05-17T02:40:53.033Z,68.80
2023-05-17T02:43:20.149Z,68.90
2023-05-17T02:45:47.620Z,68.90
2023-05-17T02:48:14.925Z,68.90
2023-05-17T02:50:42.150Z,68.60
2023-05-17T02:53:09.774Z,68.60
2023-05-17T02:55:37.285Z,68.80
2023-05-17T02:58:05.196Z,68.60
2023-05-17T03:00:33.151Z,68.50
2023-05-17T03:03:00.459Z,68.50
2023-05-17T03:05:28.280Z,68.20
2023-05-17T03:07:56.953Z,68.20
2023-05-17T03:10:24.325Z,67.90
2023-05-17T03:12:51.664Z,67.60
2023-05-17T03:15:21.720Z,67.40
2023-05-17T03:17:49.070Z,67.10
2023-05-17T03:20:19.180Z,66.90
2023-05-17T03:22:48.415Z,67.00
2023-05-17T03:25:15.769Z,67.10
2023-05-17T03:27:43.132Z,67.30
2023-05-17T03:30:11.961Z,67.20
2023-05-17T03:32:42.686Z,67.20
2023-05-17T03:35:10.048Z,67.10
2023-05-17T03:37:38.864Z,67.20
2023-05-17T03:40:07.300Z,67.30
2023-05-17T03:42:34.424Z,67.30
2023-05-17T03:45:04.915Z,67.20
2023-05-17T03:47:32.339Z,67.10
2023-05-17T03:49:59.960Z,67.00
2023-05-17T03:52:27.270Z,66.70
2023-05-17T03:54:54.509Z,66.30
2023-05-17T03:57:22.277Z,66.50
2023-05-17T03:59:49.630Z,66.40
2023-05-17T04:02:18.387Z,66.30
2023-05-17T04:04:53.349Z,66.00
2023-05-17T04:07:21.690Z,65.70
2023-05-17T04:09:48.927Z,65.90
2023-05-17T04:12:16.534Z,65.90
2023-05-17T04:14:44.392Z,66.00
2023-05-17T04:17:12.056Z,66.20
2023-05-17T04:19:39.940Z,66.10
2023-05-17T04:22:07.724Z,66.20
2023-05-17T04:24:35.255Z,65.80
2023-05-17T04:27:05.453Z,66.00
2023-05-17T04:29:32.780Z,66.10
2023-05-17T04:32:00.241Z,66.30
2023-05-17T04:34:27.735Z,66.30
2023-05-17T04:36:56.950Z,66.50
2023-05-17T04:39:25.612Z,66.60
2023-05-17T04:41:52.877Z,66.20
2023-05-17T04:44:20.639Z,66.20
2023-05-17T04:46:47.945Z,65.80
2023-05-17T04:49:15.918Z,65.40
2023-05-17T04:51:43.125Z,64.80
2023-05-17T04:54:11.028Z,65.10
2023-05-17T04:56:38.607Z,64.90
2023-05-17T04:59:11.892Z,64.50
2023-05-17T05:01:39.609Z,64.40
2023-05-17T05:04:07.453Z,64.80
2023-05-17T05:06:40.920Z,64.90
2023-05-17T05:09:08.670Z,64.20
2023-05-17T05:11:37.958Z,64.20
2023-05-17T05:14:06.306Z,64.50
2023-05-17T05:16:33.990Z,64.60
2023-05-17T05:19:02.027Z,64.90
2023-05-17T05:21:31.051Z,65.00
2023-05-17T05:23:58.510Z,65.00
2023-05-17T05:26:26.324Z,65.10
2023-05-17T05:28:58.244Z,65.10
2023-05-17T05:31:25.641Z,65.30
2023-05-17T05:33:56.928Z,65.50
2023-05-17T05:36:24.883Z,65.60
2023-05-17T05:38:54.857Z,65.50
2023-05-17T05:41:22.475Z,65.50
2023-05-17T05:43:51.216Z,65.60
2023-05-17T05:46:19.185Z,65.70
2023-05-17T05:48:46.863Z,66.00
2023-05-17T05:51:14.357Z,65.90
2023-05-17T05:53:43.342Z,65.40
2023-05-17T05:56:11.197Z,64.70
2023-05-17T05:58:38.864Z,65.00
2023-05-17T06:01:07.173Z,64.00
2023-05-17T06:03:34.514Z,63.50
2023-05-17T06:06:01.915Z,63.30
2023-05-17T06:08:29.348Z,61.60
2023-05-17T06:10:56.560Z,62.10
2023-05-17T06:13:23.681Z,62.10
2023-05-17T06:15:51.364Z,62.50
2023-05-17T06:18:18.848Z,62.60
2023-05-17T06:20:46.695Z,63.10
2023-05-17T06:23:14.071Z,63.10
2023-05-17T06:25:41.321Z,62.20
2023-05-17T06:28:09.529Z,62.90
2023-05-17T06:30:36.873Z,62.10
2023-05-17T06:33:04.247Z,62.00
2023-05-17T06:35:40.539Z,62.10
2023-05-17T06:38:14.988Z,61.30
2023-05-17T06:40:42.113Z,61.20
2023-05-17T06:43:09.284Z,61.00
2023-05-17T06:45:36.516Z,61.20
2023-05-17T06:48:04.022Z,61.30
2023-05-17T06:50:32.312Z,61.30
2023-05-17T06:52:59.752Z,59.70
2023-05-17T06:55:29.564Z,60.50
2023-05-17T06:57:58.331Z,61.50
2023-05-17T07:00:25.877Z,61.60
2023-05-17T07:02:53.210Z,60.30
2023-05-17T07:05:21.620Z,61.50
2023-05-17T07:07:48.950Z,62.20
2023-05-17T07:10:16.353Z,62.00
2023-05-17T07:12:43.557Z,62.30
2023-05-17T07:15:11.327Z,62.10
2023-05-17T07:17:38.710Z,62.30
2023-05-17T07:20:06.674Z,62.70
2023-05-17T07:22:34.033Z,62.30
2023-05-17T07:25:01.143Z,61.60
2023-05-17T07:27:28.379Z,61.70
2023-05-17T07:29:55.642Z,61.70
2023-05-17T07:32:23.055Z,62.20
2023-05-17T07:34:50.574Z,62.20
2023-05-17T07:37:17.761Z,62.20
2023-05-17T07:39:45.012Z,61.90
2023-05-17T07:42:12.145Z,60.50
2023-05-17T07:44:39.349Z,60.40
2023-05-17T07:47:06.717Z,60.20
2023-05-17T07:49:33.940Z,60.50
2023-05-17T07:52:02.879Z,61.10
2023-05-17T07:54:31.115Z,61.10
2023-05-17T07:56:59.775Z,60.10
2023-05-17T07:59:27.039Z,60.50
2023-05-17T08:01:54.284Z,60.60
2023-05-17T08:04:21.658Z,59.60
2023-05-17T08:06:50.259Z,60.80
2023-05-17T08:09:17.635Z,60.60
2023-05-17T08:11:46.257Z,60.10
2023-05-17T08:14:15.047Z,60.20
2023-05-17T08:16:43.582Z,60.50
2023-05-17T08:19:16.100Z,60.80
2023-05-17T08:21:46.468Z,60.70
2023-05-17T08:24:13.715Z,61.00
2023-05-17T08:26:41.413Z,60.80
2023-05-17T08:29:08.679Z,60.90
2023-05-17T08:31:35.958Z,60.60
2023-05-17T08:34:03.505Z,60.70
2023-05-17T08:36:31.765Z,60.80
2023-05-17T08:38:59.126Z,61.00
2023-05-17T08:41:26.353Z,60.70
2023-05-17T08:43:55.402Z,60.50
2023-05-17T08:46:23.925Z,60.60
2023-05-17T08:48:53.009Z,60.10
2023-05-17T08:51:21.006Z,58.90
2023-05-17T08:53:50.576Z,59.50
2023-05-17T08:56:20.957Z,59.90
2023-05-17T08:58:56.946Z,60.10
2023-05-17T09:01:26.823Z,60.10
2023-05-17T09:03:54.918Z,59.90
2023-05-17T09:06:23.758Z,59.60
2023-05-17T09:08:55.586Z,57.80
2023-05-17T09:11:28.992Z,57.60
2023-05-17T09:14:06.851Z,58.10
2023-05-17T09:16:36.735Z,57.10
2023-05-17T09:19:09.929Z,58.10
2023-05-17T09:21:37.387Z,58.50
2023-05-17T09:24:08.111Z,58.20
2023-05-17T09:26:46.373Z,58.80
2023-05-17T09:29:17.334Z,58.00
2023-05-17T09:31:46.106Z,58.80
2023-05-17T09:34:21.312Z,57.40
2023-05-17T09:36:49.403Z,57.40
2023-05-17T09:39:17.539Z,56.80
2023-05-17T09:41:49.197Z,57.80
2023-05-17T09:45:02.664Z,58.50
2023-05-17T09:47:37.323Z,58.30
2023-05-17T09:50:10.211Z,57.40
2023-05-17T09:52:42.872Z,56.90
2023-05-17T09:55:22.173Z,57.40
2023-05-17T09:57:53.214Z,57.60
2023-05-17T10:00:23.164Z,58.30
2023-05-17T10:02:53.192Z,58.70
2023-05-17T10:05:37.574Z,58.90
2023-05-17T10:08:16.421Z,58.60
2023-05-17T10:10:56.743Z,58.10
2023-05-17T10:13:36.638Z,57.80
2023-05-17T10:16:06.563Z,58.30
2023-05-17T10:18:42.821Z,56.60
2023-05-17T10:21:15.068Z,57.70
2023-05-17T10:23:49.324Z,58.30
2023-05-17T10:26:23.298Z,57.00
2023-05-17T10:28:55.948Z,57.30
2023-05-17T10:31:27.508Z,58.10
2023-05-17T10:33:57.827Z,57.40
2023-05-17T10:36:29.262Z,57.90
2023-05-17T10:38:57.783Z,55.80
2023-05-17T10:41:34.355Z,56.70
2023-05-17T10:44:08.025Z,55.60
2023-05-17T10:46:39.528Z,56.40
2023-05-17T10:49:20.376Z,55.90
2023-05-17T10:52:13.149Z,55.70
2023-05-17T10:54:48.239Z,55.60
2023-05-17T11:00:28.418Z,55.80
2023-05-17T11:03:30.381Z,55.70
2023-05-17T11:06:23.485Z,54.90
2023-05-17T11:09:31.408Z,56.20
2023-05-17T11:12:13.296Z,56.30
2023-05-17T11:14:56.631Z,55.90
2023-05-17T11:17:40.109Z,56.20
2023-05-17T11:20:16.923Z,56.60
2023-05-17T11:23:07.883Z,56.70
2023-05-17T11:25:39.369Z,55.20
2023-05-17T11:28:22.215Z,55.30
2023-05-17T11:31:01.927Z,55.40
2023-05-17T11:33:44.896Z,55.50
2023-05-17T11:36:26.747Z,56.50
2023-05-17T11:39:19.284Z,56.80
2023-05-17T11:41:56.855Z,55.90
2023-05-17T11:44:25.496Z,55.50
2023-05-17T11:47:00.391Z,56.10
2023-05-17T11:49:35.569Z,55.00
2023-05-17T11:52:07.210Z,54.80
2023-05-17T11:54:35.068Z,52.80
2023-05-17T11:57:04.037Z,51.80
2023-05-17T11:59:40.302Z,53.70
2023-05-17T12:02:07.703Z,51.80
2023-05-17T12:04:38.874Z,52.90
2023-05-17T12:07:10.633Z,53.90
2023-05-17T12:09:39.717Z,52.30
2023-05-17T12:12:07.050Z,53.70
2023-05-17T12:14:34.593Z,54.00
2023-05-17T12:17:04.088Z,53.70
2023-05-17T12:19:32.794Z,54.70
2023-05-17T12:22:12.950Z,54.50
2023-05-17T12:24:42.499Z,53.00
2023-05-17T12:27:10.261Z,53.80
2023-05-17T12:29:38.370Z,53.80
2023-05-17T12:32:07.343Z,52.70
2023-05-17T12:34:34.870Z,51.90
2023-05-17T12:37:02.470Z,51.70
2023-05-17T12:39:31.630Z,52.30
2023-05-17T12:41:59.556Z,52.30
2023-05-17T12:44:26.782Z,52.30
2023-05-17T12:46:56.388Z,52.30
2023-05-17T12:49:23.827Z,52.00
2023-05-17T12:51:51.104Z,52.20
2023-05-17T12:54:30.558Z,53.30
2023-05-17T12:56:58.076Z,53.40
2023-05-17T12:59:26.065Z,51.00
2023-05-17T13:01:55.929Z,52.90
2023-05-17T13:04:34.095Z,53.00
2023-05-17T13:07:03.633Z,51.90
2023-05-17T13:09:32.542Z,52.10
2023-05-17T13:12:02.136Z,51.90
2023-05-17T13:14:43.451Z,52.20
2023-05-17T13:17:16.972Z,51.30
2023-05-17T13:19:44.213Z,51.70
2023-05-17T13:22:11.444Z,52.00
2023-05-17T13:24:40.135Z,50.40
2023-05-17T13:27:08.264Z,51.60
2023-05-17T13:29:40.129Z,52.20
2023-05-17T13:32:10.006Z,51.80
2023-05-17T13:34:37.193Z,52.40
2023-05-17T13:37:06.315Z,52.00
2023-05-17T13:39:35.055Z,52.40
2023-05-17T13:42:03.662Z,52.20
2023-05-17T13:44:30.853Z,51.80
2023-05-17T13:46:58.098Z,51.70
2023-05-17T13:49:25.348Z,52.00
2023-05-17T13:51:52.476Z,50.60
2023-05-17T13:54:22.591Z,50.00
2023-05-17T13:56:49.924Z,51.40
2023-05-17T13:59:17.121Z,51.40
2023-05-17T14:01:44.249Z,51.90
2023-05-17T14:04:11.819Z,51.60
2023-05-17T14:06:39.598Z,52.00
2023-05-17T14:09:06.935Z,51.10
2023-05-17T14:11:34.787Z,50.00
2023-05-17T14:14:02.031Z,51.00
2023-05-17T14:16:29.224Z,51.20
2023-05-17T14:18:56.854Z,51.60
2023-05-17T14:21:24.220Z,49.80
2023-05-17T14:23:51.503Z,50.80
2023-05-17T14:26:18.664Z,51.60
2023-05-17T14:28:45.918Z,51.40
2023-05-17T14:31:13.162Z,51.50
2023-05-17T14:33:40.552Z,51.80
2023-05-17T14:36:07.998Z,52.00
2023-05-17T14:38:35.179Z,52.30
2023-05-17T14:41:02.439Z,52.50
2023-05-17T14:43:29.613Z,52.80
2023-05-17T14:45:56.753Z,52.70
2023-05-17T14:48:24.102Z,52.70
2023-05-17T14:50:53.385Z,52.40
2023-05-17T14:53:20.868Z,52.00
2023-05-17T14:55:48.005Z,52.00
2023-05-17T14:58:15.531Z,52.00
2023-05-17T15:00:48.454Z,52.20
2023-05-17T15:03:21.945Z,51.80
2023-05-17T15:05:56.648Z,51.80
2023-05-17T15:08:27.566Z,51.40
2023-05-17T15:10:54.781Z,51.50
2023-05-17T15:13:22.596Z,51.40
2023-05-17T15:15:49.745Z,51.60
2023-05-17T15:18:17.279Z,52.00
2023-05-17T15:20:44.504Z,52.40
2023-05-17T15:23:12.212Z,52.10
2023-05-17T15:25:39.380Z,53.00
2023-05-17T15:28:06.660Z,52.70
2023-05-17T15:30:33.891Z,52.40
2023-05-17T15:33:01.456Z,52.60
2023-05-17T15:35:29.394Z,52.50
2023-05-17T15:37:59.714Z,53.10
2023-05-17T15:40:26.998Z,53.30
2023-05-17T15:42:54.237Z,53.30
2023-05-17T15:45:21.590Z,53.40
2023-05-17T15:47:49.676Z,52.90
2023-05-17T15:50:17.205Z,52.20
2023-05-17T15:52:44.394Z,52.20
2023-05-17T15:55:12.473Z,50.90
2023-05-17T15:57:39.927Z,51.40
2023-05-17T16:00:08.023Z,52.50
2023-05-17T16:02:35.405Z,52.30
2023-05-17T16:05:04.096Z,52.80
2023-05-17T16:07:31.560Z,53.20
2023-05-17T16:09:58.720Z,53.40
2023-05-17T16:12:25.876Z,53.50
2023-05-17T16:14:53.057Z,53.40
2023-05-17T16:17:20.316Z,53.00
2023-05-17T16:19:47.546Z,53.30
2023-05-17T16:22:14.724Z,53.90
2023-05-17T16:24:42.163Z,54.00
2023-05-17T16:27:09.464Z,53.50
2023-05-17T16:29:40.293Z,54.10
2023-05-17T16:32:08.496Z,53.90
2023-05-17T16:34:36.222Z,54.20
2023-05-17T16:37:06.230Z,54.20
2023-05-17T16:39:33.528Z,54.40
2023-05-17T16:42:00.870Z,54.30
2023-05-17T16:44:28.021Z,54.70
2023-05-17T16:46:55.296Z,54.40
2023-05-17T16:49:23.200Z,54.10
2023-05-17T16:51:52.329Z,53.90
2023-05-17T16:54:19.499Z,53.70
2023-05-17T16:56:47.926Z,53.70
2023-05-17T16:59:15.959Z,53.50
2023-05-17T17:01:46.083Z,53.80
2023-05-17T17:04:14.866Z,53.00
2023-05-17T17:06:42.500Z,53.50
2023-05-17T17:09:11.760Z,54.10
2023-05-17T17:11:39.097Z,54.00
2023-05-17T17:14:07.155Z,53.50
2023-05-17T17:16:34.410Z,53.50
2023-05-17T17:19:01.886Z,53.20
2023-05-17T17:21:30.167Z,53.70
2023-05-17T17:23:57.454Z,53.70
2023-05-17T17:26:24.680Z,54.20
2023-05-17T17:28:51.878Z,54.10
2023-05-17T17:31:19.142Z,54.10
2023-05-17T17:33:46.377Z,54.20
2023-05-17T17:36:13.623Z,54.50
2023-05-17T17:38:40.950Z,54.80
2023-05-17T17:41:08.147Z,55.10
2023-05-17T17:43:35.309Z,54.40
2023-05-17T17:46:02.915Z,54.20
2023-05-17T17:48:30.160Z,54.40
2023-05-17T17:50:57.350Z,54.20
2023-05-17T17:53:24.799Z,53.90
2023-05-17T17:55:51.929Z,54.50
2023-05-17T17:58:19.183Z,54.40
2023-05-17T18:00:46.582Z,54.50
2023-05-17T18:03:13.866Z,54.70
2023-05-17T18:05:41.179Z,55.30
2023-05-17T18:08:08.409Z,55.40
2023-05-17T18:10:35.905Z,55.40
2023-05-17T18:13:03.161Z,55.80
2023-05-17T18:15:30.600Z,55.40
2023-05-17T18:17:57.975Z,55.50
2023-05-17T18:20:26.604Z,55.60
2023-05-17T18:22:55.293Z,55.90
2023-05-17T18:25:22.759Z,56.30
2023-05-17T18:27:50.034Z,56.60
2023-05-17T18:30:18.640Z,56.80
2023-05-17T18:32:46.318Z,56.80
2023-05-17T18:35:13.622Z,57.50
2023-05-17T18:37:40.784Z,57.90
2023-05-17T18:40:09.545Z,58.00
2023-05-17T18:42:36.680Z,58.20
2023-05-17T18:45:04.501Z,58.60
2023-05-17T18:47:31.786Z,58.40
2023-05-17T18:49:59.698Z,57.80
2023-05-17T18:52:26.962Z,57.50
2023-05-17T18:54:55.461Z,57.40
2023-05-17T18:57:22.725Z,57.60
2023-05-17T18:59:50.015Z,57.60
2023-05-17T19:02:18.432Z,57.30
2023-05-17T19:04:45.762Z,57.40
2023-05-17T19:07:13.027Z,57.50
2023-05-17T19:09:40.220Z,57.40
2023-05-17T19:12:07.660Z,57.70
2023-05-17T19:14:34.834Z,57.30
2023-05-17T19:17:02.226Z,57.40
2023-05-17T19:19:31.357Z,57.50
2023-05-17T19:22:00.712Z,57.80
2023-05-17T19:24:28.150Z,57.90
2023-05-17T19:26:55.357Z,58.00
2023-05-17T19:29:22.939Z,58.00
2023-05-17T19:31:50.236Z,58.10
2023-05-17T19:34:17.404Z,58.20
2023-05-17T19:36:44.641Z,58.30
2023-05-17T19:39:11.955Z,58.40
2023-05-17T19:41:39.123Z,58.80
2023-05-17T19:44:06.404Z,58.20
2023-05-17T19:46:33.832Z,58.10
2023-05-17T19:49:01.271Z,57.90
2023-05-17T19:51:28.503Z,57.90
2023-05-17T19:53:55.912Z,57.40
2023-05-17T19:56:24.355Z,57.40
2023-05-17T19:58:52.462Z,57.60
2023-05-17T20:01:21.514Z,57.60
2023-05-17T20:03:48.880Z,57.80
2023-05-17T20:06:16.389Z,58.10
2023-05-17T20:08:43.795Z,58.00
2023-05-17T20:11:11.245Z,58.00
2023-05-17T20:13:41.390Z,58.50
2023-05-17T20:16:13.351Z,58.50
2023-05-17T20:18:43.340Z,58.80
2023-05-17T20:21:21.745Z,58.60
2023-05-17T20:23:49.151Z,58.20
2023-05-17T20:26:17.217Z,58.00
2023-05-17T20:28:45.197Z,58.00
2023-05-17T20:31:12.962Z,57.90
2023-05-17T20:33:40.219Z,57.80
2023-05-17T20:36:07.508Z,57.80
2023-05-17T20:38:34.782Z,57.90
2023-05-17T20:41:02.188Z,57.60
2023-05-17T20:43:29.747Z,57.60
2023-05-17T20:45:56.958Z,58.00
2023-05-17T20:48:24.179Z,58.20
2023-05-17T20:50:51.468Z,58.60
2023-05-17T20:53:18.610Z,58.20
2023-05-17T20:55:45.758Z,58.00
2023-05-17T20:58:13.096Z,58.00
2023-05-17T21:00:40.263Z,58.50
2023-05-17T21:03:09.504Z,58.80
2023-05-17T21:05:38.623Z,58.90
2023-05-17T21:08:07.550Z,59.10
2023-05-17T21:10:36.237Z,59.50
2023-05-17T21:13:03.499Z,59.70
2023-05-17T21:15:30.929Z,59.60
2023-05-17T21:17:58.355Z,59.10
2023-05-17T21:20:25.632Z,59.10
2023-05-17T21:22:52.872Z,59.40
2023-05-17T21:25:20.029Z,59.10
2023-05-17T21:27:47.535Z,59.00
2023-05-17T21:30:14.883Z,58.90
2023-05-17T21:32:42.222Z,58.60
2023-05-17T21:35:09.552Z,58.70
2023-05-17T21:37:40.037Z,58.70
2023-05-17T21:40:08.635Z,59.10
2023-05-17T21:42:36.303Z,59.60
2023-05-17T21:45:07.371Z,59.60
2023-05-17T21:47:37.913Z,59.90
2023-05-17T21:50:05.670Z,59.90
2023-05-17T21:52:32.959Z,59.80
2023-05-17T21:55:00.138Z,59.70
2023-05-17T21:57:27.289Z,60.00
2023-05-17T21:59:54.443Z,59.60
2023-05-17T22:02:21.803Z,59.60
2023-05-17T22:04:48.970Z,59.70
2023-05-17T22:07:16.191Z,59.80
2023-05-17T22:09:45.590Z,59.70
2023-05-17T22:12:12.923Z,59.60
2023-05-17T22:14:43.436Z,59.30
2023-05-17T22:17:10.669Z,59.20
2023-05-17T22:19:40.968Z,59.70
2023-05-17T22:22:08.678Z,59.10
2023-05-17T22:24:35.941Z,59.00
2023-05-17T22:27:03.949Z,59.00
2023-05-17T22:29:31.226Z,59.10
2023-05-17T22:31:58.637Z,59.80
2023-05-17T22:34:25.884Z,60.20
2023-05-17T22:36:55.156Z,60.20
2023-05-17T22:39:25.789Z,60.30
2023-05-17T22:41:52.984Z,60.40
2023-05-17T22:44:21.884Z,60.50
2023-05-17T22:46:49.203Z,60.60
2023-05-17T22:49:17.107Z,60.60
2023-05-17T22:51:44.477Z,60.70
2023-05-17T22:54:11.640Z,60.70
2023-05-17T22:56:38.886Z,60.70
2023-05-17T22:59:06.076Z,60.70
2023-05-17T23:01:33.347Z,60.80
2023-05-17T23:04:00.725Z,60.80
2023-05-17T23:06:32.182Z,60.90
2023-05-17T23:09:00.345Z,61.10
2023-05-17T23:11:28.456Z,61.20
2023-05-17T23:13:55.889Z,61.30
2023-05-17T23:16:26.130Z,61.30
2023-05-17T23:18:53.692Z,61.40
2023-05-17T23:21:21.272Z,61.40
2023-05-17T23:23:48.441Z,61.50
2023-05-17T23:26:17.316Z,61.70
2023-05-17T23:28:44.508Z,61.90
2023-05-17T23:31:11.728Z,61.90
2023-05-17T23:33:38.994Z,62.00
2023-05-17T23:36:06.633Z,62.00
2023-05-17T23:38:33.894Z,61.90
2023-05-17T23:41:01.154Z,61.60
2023-05-17T23:43:28.379Z,61.70
2023-05-17T23:45:55.790Z,61.80
2023-05-17T23:48:25.725Z,61.90
2023-05-17T23:50:52.933Z,61.90
2023-05-17T23:53:20.112Z,62.00
2023-05-17T23:55:47.326Z,61.90
2023-05-17T23:58:14.542Z,62.10
